CheckWX is a tool to help pilots better visualize weather data.  It is not intended as a substitute for an official pre-flight weather briefing.

08:15:31 UTC

KPSF METAR
Pittsfield Municipal Airport
Pittsfield, Massachusetts, USA
Current

22 mins ago

KPSF 220754Z AUTO 31014G24KT 10SM OVC037 01/M06 A3009 RMK AO2 SLP194 T00061061
Observed
Feb-22 @ 07:54 UTC
Wind
  • 310° at 14 KTS
  • Gusting to KTS
Visibility
10 SM
Flight Rules
VFR
Cloud Levels
  • Overcast at 3,700' AGL
Temperature
C / 34°F
Dewpoint
-6°C / 21°F
Humidity
60%
Altimeter
30.09" Hg
Pressure
1019.4 hPa
Previous

1 hour ago

KPSF 220654Z AUTO 30017G27KT 10SM OVC035 01/M06 A3009 RMK AO2 PK WND 29027/0645 SLP194 T00111061
Observed
Feb-22 @ 06:54 UTC
Wind
  • 300° at 17 KTS
  • Gusting to KTS
Visibility
10 SM
Flight Rules
VFR
Cloud Levels
  • Overcast at 3,500' AGL
Temperature
C / 34°F
Dewpoint
-6°C / 21°F
Humidity
60%
Altimeter
30.09" Hg
Pressure
1019.4 hPa
Previous

2 hours ago

KPSF 220554Z AUTO 30015G28KT 10SM OVC036 01/M06 A3007 RMK AO2 PK WND 29033/0540 SLP187 T00111056 10028 20011 53014
Observed
Feb-22 @ 05:54 UTC
Wind
  • 300° at 15 KTS
  • Gusting to KTS
Visibility
10 SM
Flight Rules
VFR
Cloud Levels
  • Overcast at 3,600' AGL
Temperature
C / 34°F
Dewpoint
-6°C / 21°F
Humidity
60%
Altimeter
30.07" Hg
Pressure
1018.7 hPa